createdAt,value
2019-04-03T00:01:06.691Z,10.90
2019-04-03T00:03:34.292Z,10.80
2019-04-03T00:06:01.747Z,10.80
2019-04-03T00:08:28.814Z,10.70
2019-04-03T00:10:56.298Z,10.80
2019-04-03T00:13:23.750Z,10.80
2019-04-03T00:15:50.798Z,10.70
2019-04-03T00:18:18.263Z,10.80
2019-04-03T00:20:46.905Z,10.70
2019-04-03T00:23:15.278Z,10.70
2019-04-03T00:25:42.428Z,10.60
2019-04-03T00:28:09.593Z,10.60
2019-04-03T00:30:36.579Z,10.60
2019-04-03T00:33:03.759Z,10.60
2019-04-03T00:35:31.114Z,10.60
2019-04-03T00:37:58.539Z,10.60
2019-04-03T00:40:25.842Z,10.50
2019-04-03T00:42:54.639Z,10.50
2019-04-03T00:45:24.138Z,10.50
2019-04-03T00:47:51.518Z,10.50
2019-04-03T00:50:18.590Z,10.40
2019-04-03T00:52:46.064Z,10.40
2019-04-03T00:55:14.203Z,10.40
2019-04-03T00:57:42.087Z,10.30
2019-04-03T01:00:13.931Z,10.30
2019-04-03T01:02:41.872Z,10.30
2019-04-03T01:05:09.248Z,10.20
2019-04-03T01:07:36.507Z,10.30
2019-04-03T01:10:04.794Z,10.30
2019-04-03T01:12:32.603Z,10.20
2019-04-03T01:15:01.558Z,10.20
2019-04-03T01:17:29.621Z,10.20
2019-04-03T01:19:56.878Z,10.20
2019-04-03T01:22:24.263Z,10.20
2019-04-03T01:24:51.735Z,10.30
2019-04-03T01:27:19.048Z,10.30
2019-04-03T01:29:46.417Z,10.30
2019-04-03T01:32:15.651Z,10.40
2019-04-03T01:34:42.784Z,10.40
2019-04-03T01:37:09.820Z,10.50
2019-04-03T01:39:38.194Z,10.50
2019-04-03T01:42:05.274Z,10.50
2019-04-03T01:44:32.278Z,10.50
2019-04-03T01:46:59.312Z,10.60
2019-04-03T01:49:28.332Z,10.60
2019-04-03T01:51:56.180Z,10.50
2019-04-03T01:54:23.868Z,10.60
2019-04-03T01:56:51.278Z,10.50
2019-04-03T01:59:18.380Z,10.50
2019-04-03T02:01:45.778Z,10.40
2019-04-03T02:04:13.381Z,10.40
2019-04-03T02:06:43.114Z,10.40
2019-04-03T02:09:10.275Z,10.40
2019-04-03T02:11:37.771Z,10.40
2019-04-03T02:14:05.136Z,10.30
2019-04-03T02:16:32.438Z,10.20
2019-04-03T02:19:00.632Z,10.20
2019-04-03T02:21:28.364Z,10.20
2019-04-03T02:23:55.821Z,10.20
2019-04-03T02:26:22.931Z,10.10
2019-04-03T02:28:50.543Z,10.10
2019-04-03T02:31:19.260Z,10.10
2019-04-03T02:33:46.596Z,10.10
2019-04-03T02:36:13.852Z,10.00
2019-04-03T02:38:41.130Z,10.10
2019-04-03T02:41:08.211Z,10.10
2019-04-03T02:43:35.708Z,10.10
2019-04-03T02:46:03.517Z,10.00
2019-04-03T02:48:30.627Z,10.00
2019-04-03T02:50:58.835Z,10.10
2019-04-03T02:53:27.533Z,10.00
2019-04-03T02:55:55.435Z,10.00
2019-04-03T02:58:23.048Z,10.00
2019-04-03T03:00:50.848Z,10.00
2019-04-03T03:03:18.517Z,10.00
2019-04-03T03:05:45.645Z,10.00
2019-04-03T03:08:13.136Z,10.00
2019-04-03T03:10:40.925Z,10.00
2019-04-03T03:13:08.699Z,10.00
2019-04-03T03:15:35.880Z,9.90
2019-04-03T03:18:03.694Z,9.90
2019-04-03T03:20:32.266Z,9.90
2019-04-03T03:23:01.593Z,9.90
2019-04-03T03:25:32.415Z,9.90
2019-04-03T03:27:58.601Z,9.90
2019-04-03T03:30:40.024Z,9.90
2019-04-03T03:33:21.704Z,9.90
2019-04-03T03:35:31.507Z,9.80
2019-04-03T03:37:56.752Z,9.90
2019-04-03T03:40:25.055Z,9.90
2019-04-03T03:42:52.715Z,9.90
2019-04-03T03:45:21.598Z,9.90
2019-04-03T03:47:50.101Z,9.90
2019-04-03T03:50:24.870Z,9.90
2019-04-03T03:52:54.415Z,9.90
2019-04-03T03:55:24.811Z,9.90
2019-04-03T03:57:53.079Z,9.90
2019-04-03T04:00:23.101Z,9.80
2019-04-03T04:02:49.800Z,9.90
2019-04-03T04:05:19.838Z,9.80
2019-04-03T04:07:46.636Z,9.80
2019-04-03T04:10:14.596Z,9.80
2019-04-03T04:12:43.977Z,9.80
2019-04-03T04:15:11.292Z,9.80
2019-04-03T04:17:39.126Z,9.70
2019-04-03T04:20:06.514Z,9.70
2019-04-03T04:22:34.005Z,9.80
2019-04-03T04:25:04.083Z,9.80
2019-04-03T04:27:33.556Z,9.70
2019-04-03T04:30:01.086Z,9.70
2019-04-03T04:32:28.566Z,9.70
2019-04-03T04:34:56.024Z,9.70
2019-04-03T04:37:24.621Z,9.60
2019-04-03T04:39:52.277Z,9.60
2019-04-03T04:42:19.991Z,9.60
2019-04-03T04:44:47.093Z,9.60
2019-04-03T04:47:15.716Z,9.50
2019-04-03T04:49:43.208Z,9.50
2019-04-03T04:52:10.475Z,9.60
2019-04-03T04:54:38.624Z,9.50
2019-04-03T04:57:08.930Z,9.50
2019-04-03T04:59:37.028Z,9.50
2019-04-03T05:02:04.773Z,9.50
2019-04-03T05:04:32.273Z,9.60
2019-04-03T05:07:00.527Z,9.50
2019-04-03T05:09:28.273Z,9.70
2019-04-03T05:11:55.949Z,9.60
2019-04-03T05:14:23.556Z,9.60
2019-04-03T05:16:50.665Z,9.50
2019-04-03T05:19:19.372Z,9.50
2019-04-03T05:21:46.840Z,9.50
2019-04-03T05:24:14.419Z,9.50
2019-04-03T05:26:41.620Z,9.50
2019-04-03T05:29:09.095Z,9.50
2019-04-03T05:31:38.506Z,9.60
2019-04-03T05:34:05.658Z,9.60
2019-04-03T05:36:33.004Z,9.70
2019-04-03T05:39:02.577Z,9.70
2019-04-03T05:41:29.407Z,9.70
2019-04-03T05:43:56.861Z,9.70
2019-04-03T05:46:23.930Z,9.70
2019-04-03T05:48:51.148Z,9.70
2019-04-03T05:51:18.659Z,9.80
2019-04-03T05:53:46.171Z,9.80
2019-04-03T05:56:13.666Z,9.80
2019-04-03T05:58:54.002Z,9.90
2019-04-03T06:01:11.412Z,9.90
2019-04-03T06:03:44.498Z,9.90
2019-04-03T06:06:08.290Z,10.00
2019-04-03T06:08:35.395Z,10.00
2019-04-03T06:11:04.128Z,10.10
2019-04-03T06:13:32.191Z,10.10
2019-04-03T06:15:59.447Z,10.10
2019-04-03T06:18:26.953Z,10.20
2019-04-03T06:20:55.203Z,10.30
2019-04-03T06:23:22.759Z,10.30
2019-04-03T06:25:50.194Z,10.30
2019-04-03T06:28:17.316Z,10.30
2019-04-03T06:30:44.765Z,10.30
2019-04-03T06:33:12.092Z,10.40
2019-04-03T06:35:39.557Z,10.40
2019-04-03T06:38:06.631Z,10.40
2019-04-03T06:40:35.315Z,10.40
2019-04-03T06:43:03.024Z,10.40
2019-04-03T06:45:30.225Z,10.50
2019-04-03T06:47:57.615Z,10.60
2019-04-03T06:50:24.772Z,10.60
2019-04-03T06:52:52.987Z,10.70
2019-04-03T06:55:20.899Z,10.70
2019-04-03T06:57:47.874Z,10.80
2019-04-03T07:00:14.958Z,10.80
2019-04-03T07:02:41.995Z,10.80
2019-04-03T07:05:10.189Z,10.80
2019-04-03T07:07:37.988Z,10.90
2019-04-03T07:10:08.456Z,10.90
2019-04-03T07:12:35.212Z,10.90
2019-04-03T07:15:02.575Z,10.90
2019-04-03T07:17:31.409Z,11.00
2019-04-03T07:20:11.817Z,11.00
2019-04-03T07:22:28.292Z,11.00
2019-04-03T07:24:55.656Z,11.10
2019-04-03T07:27:22.649Z,11.10
2019-04-03T07:29:50.374Z,11.20
2019-04-03T07:32:17.639Z,11.20
2019-04-03T07:34:45.774Z,11.20
2019-04-03T07:37:15.317Z,11.20
2019-04-03T07:39:41.820Z,11.30
2019-04-03T07:42:08.881Z,11.30
2019-04-03T07:44:35.896Z,11.30
2019-04-03T07:47:04.279Z,11.40
2019-04-03T07:49:31.856Z,11.50
2019-04-03T07:51:59.295Z,11.60
2019-04-03T07:54:26.904Z,11.60
2019-04-03T07:56:57.405Z,11.50
2019-04-03T07:59:24.487Z,11.50
2019-04-03T08:01:52.383Z,11.50
2019-04-03T08:04:20.098Z,11.50
2019-04-03T08:06:47.423Z,11.50
2019-04-03T08:09:14.664Z,11.50
2019-04-03T08:11:41.640Z,11.50
2019-04-03T08:14:10.045Z,11.50
2019-04-03T08:16:37.296Z,11.50
2019-04-03T08:19:04.465Z,11.50
2019-04-03T08:21:31.839Z,11.50
2019-04-03T08:23:59.880Z,11.50
2019-04-03T08:26:27.468Z,11.50
2019-04-03T08:28:54.641Z,11.40
2019-04-03T08:31:23.493Z,11.30
2019-04-03T08:33:50.779Z,11.30
2019-04-03T08:36:24.612Z,11.30
2019-04-03T08:38:47.441Z,11.20
2019-04-03T08:41:15.315Z,11.30
2019-04-03T08:43:42.760Z,11.30
2019-04-03T08:46:11.003Z,11.30
2019-04-03T08:48:38.476Z,11.30
2019-04-03T08:51:05.621Z,11.40
2019-04-03T08:53:33.686Z,11.50
2019-04-03T08:56:00.727Z,11.50
2019-04-03T08:58:29.915Z,11.60
2019-04-03T09:00:57.325Z,11.70
2019-04-03T09:03:24.340Z,11.70
2019-04-03T09:05:52.933Z,11.70
2019-04-03T09:08:21.747Z,11.80
2019-04-03T09:10:49.256Z,11.80
2019-04-03T09:13:18.566Z,11.90
2019-04-03T09:15:45.477Z,11.90
2019-04-03T09:18:12.939Z,12.00
2019-04-03T09:20:41.068Z,12.10
2019-04-03T09:23:09.222Z,12.10
2019-04-03T09:25:36.190Z,12.20
2019-04-03T09:28:04.744Z,12.10
2019-04-03T09:30:31.932Z,12.10
2019-04-03T09:33:00.344Z,12.10
2019-04-03T09:35:32.073Z,12.00
2019-04-03T09:37:58.338Z,12.00
2019-04-03T09:40:25.766Z,12.00
2019-04-03T09:42:53.291Z,12.00
2019-04-03T09:45:20.390Z,12.00
2019-04-03T09:47:48.293Z,11.90
2019-04-03T09:50:16.140Z,11.90
2019-04-03T09:52:48.717Z,11.80
2019-04-03T09:55:12.385Z,11.70
2019-04-03T09:57:39.739Z,11.70
2019-04-03T10:00:10.652Z,11.60
2019-04-03T10:02:37.332Z,11.50
2019-04-03T10:05:05.422Z,11.40
2019-04-03T10:07:35.431Z,11.30
2019-04-03T10:10:03.964Z,11.20
2019-04-03T10:12:32.685Z,11.10
2019-04-03T10:15:00.172Z,11.10
2019-04-03T10:17:27.857Z,11.00
2019-04-03T10:19:55.094Z,10.90
2019-04-03T10:22:24.210Z,10.90
2019-04-03T10:24:51.074Z,10.80
2019-04-03T10:27:18.351Z,10.70
2019-04-03T10:29:45.702Z,10.80
2019-04-03T10:32:12.966Z,10.70
2019-04-03T10:34:40.236Z,10.70
2019-04-03T10:37:07.299Z,10.70
2019-04-03T10:39:34.560Z,10.70
2019-04-03T10:42:01.784Z,10.70
2019-04-03T10:44:28.864Z,10.80
2019-04-03T10:46:56.002Z,10.80
2019-04-03T10:49:23.034Z,10.90
2019-04-03T10:51:50.641Z,11.00
2019-04-03T10:54:18.057Z,11.10
2019-04-03T10:56:45.268Z,11.10
2019-04-03T10:59:13.919Z,11.10
2019-04-03T11:01:43.503Z,11.10
2019-04-03T11:04:10.507Z,11.10
2019-04-03T11:06:37.894Z,11.20
2019-04-03T11:09:07.735Z,11.20
2019-04-03T11:11:37.007Z,11.40
2019-04-03T11:14:06.664Z,11.40
2019-04-03T11:16:33.204Z,11.50
2019-04-03T11:19:05.114Z,11.60
2019-04-03T11:21:30.774Z,11.60
2019-04-03T11:23:58.071Z,11.50
2019-04-03T11:26:25.947Z,11.50
2019-04-03T11:28:53.884Z,11.60
2019-04-03T11:31:26.612Z,11.60
2019-04-03T11:33:51.515Z,11.70
2019-04-03T11:36:18.794Z,11.80
2019-04-03T11:38:45.991Z,11.90
2019-04-03T11:41:18.048Z,12.00
2019-04-03T11:43:42.648Z,12.00
2019-04-03T11:46:09.949Z,12.00
2019-04-03T11:48:37.281Z,12.00
2019-04-03T11:51:04.282Z,12.00
2019-04-03T11:53:33.071Z,12.00
2019-04-03T11:56:00.650Z,11.90
2019-04-03T11:58:28.148Z,11.80
2019-04-03T12:00:55.364Z,11.70
2019-04-03T12:03:22.426Z,11.80
2019-04-03T12:05:50.890Z,11.80
2019-04-03T12:08:17.997Z,11.80
2019-04-03T12:10:45.483Z,11.80
2019-04-03T12:13:14.239Z,11.80
2019-04-03T12:15:41.621Z,12.00
2019-04-03T12:18:09.523Z,12.10
2019-04-03T12:20:41.050Z,12.20
2019-04-03T12:23:06.530Z,12.30
2019-04-03T12:25:34.860Z,12.40
2019-04-03T12:28:03.749Z,12.50
2019-04-03T12:30:32.600Z,12.30
2019-04-03T12:32:59.935Z,12.20
2019-04-03T12:35:27.231Z,12.10
2019-04-03T12:37:54.877Z,12.00
2019-04-03T12:40:22.048Z,12.00
2019-04-03T12:42:49.127Z,12.10
2019-04-03T12:45:18.239Z,12.20
2019-04-03T12:47:45.387Z,12.20
2019-04-03T12:50:14.510Z,12.50
2019-04-03T12:52:44.425Z,12.60
2019-04-03T12:55:10.923Z,12.80
2019-04-03T12:57:39.671Z,12.90
2019-04-03T13:00:10.606Z,13.00
2019-04-03T13:02:37.183Z,13.10
2019-04-03T13:05:06.751Z,13.10
2019-04-03T13:07:35.897Z,13.20
2019-04-03T13:10:07.033Z,13.30
2019-04-03T13:12:34.065Z,13.20
2019-04-03T13:15:02.100Z,13.20
2019-04-03T13:17:30.274Z,13.10
2019-04-03T13:20:01.572Z,13.20
2019-04-03T13:22:26.640Z,13.20
2019-04-03T13:24:53.917Z,13.10
2019-04-03T13:27:21.299Z,13.30
2019-04-03T13:29:48.499Z,13.40
2019-04-03T13:32:17.647Z,13.40
2019-04-03T13:34:44.982Z,13.40
2019-04-03T13:37:11.974Z,13.40
2019-04-03T13:39:39.289Z,13.30
2019-04-03T13:42:06.818Z,13.10
2019-04-03T13:44:34.163Z,13.00
2019-04-03T13:47:01.266Z,13.00
2019-04-03T13:49:30.203Z,12.90
2019-04-03T13:52:02.178Z,12.90
2019-04-03T13:54:27.360Z,12.80
2019-04-03T13:56:54.498Z,12.90
2019-04-03T13:59:23.046Z,12.90
2019-04-03T14:01:51.088Z,13.00
2019-04-03T14:04:18.103Z,13.10
2019-04-03T14:07:01.296Z,13.10
2019-04-03T14:09:28.254Z,13.20
2019-04-03T14:11:55.813Z,13.20
2019-04-03T14:14:23.422Z,13.20
2019-04-03T14:16:50.847Z,13.20
2019-04-03T14:19:18.140Z,13.30
2019-04-03T14:21:45.171Z,13.30
2019-04-03T14:24:12.898Z,13.20
2019-04-03T14:26:40.026Z,13.10
2019-04-03T14:29:07.971Z,13.10
2019-04-03T14:31:37.647Z,13.10
2019-04-03T14:34:05.070Z,13.10
2019-04-03T14:36:32.277Z,13.10
2019-04-03T14:39:02.399Z,13.10
2019-04-03T14:41:30.825Z,13.10
2019-04-03T14:43:57.921Z,13.10
2019-04-03T14:46:24.918Z,13.00
2019-04-03T14:48:52.096Z,13.00
2019-04-03T14:51:19.354Z,13.10
2019-04-03T14:53:46.683Z,13.10
2019-04-03T14:56:13.798Z,13.10
2019-04-03T14:58:41.534Z,13.10
2019-04-03T15:01:08.798Z,13.10
2019-04-03T15:03:35.823Z,13.10
2019-04-03T15:06:03.083Z,13.10
2019-04-03T15:08:30.414Z,13.20
2019-04-03T15:10:57.770Z,13.10
2019-04-03T15:13:25.433Z,13.10
2019-04-03T15:15:52.759Z,13.00
2019-04-03T15:18:21.373Z,13.10
2019-04-03T15:20:49.291Z,13.10
2019-04-03T15:23:17.530Z,13.10
2019-04-03T15:25:45.432Z,13.30
2019-04-03T15:28:13.463Z,13.50
2019-04-03T15:30:43.079Z,13.70
2019-04-03T15:33:10.078Z,14.00
2019-04-03T15:35:37.112Z,14.20
2019-04-03T15:38:04.693Z,14.30
2019-04-03T15:40:31.766Z,14.40
2019-04-03T15:42:59.057Z,14.40
2019-04-03T15:45:26.274Z,14.50
2019-04-03T15:47:56.918Z,14.80
2019-04-03T15:50:22.167Z,14.80
2019-04-03T15:52:50.608Z,14.80
2019-04-03T15:55:17.865Z,14.80
2019-04-03T15:57:44.863Z,14.90
2019-04-03T16:00:13.175Z,15.00
2019-04-03T16:02:44.493Z,15.20
2019-04-03T16:05:10.708Z,15.20
2019-04-03T16:07:40.469Z,15.40
2019-04-03T16:10:07.351Z,15.60
2019-04-03T16:12:35.782Z,15.70
2019-04-03T16:15:04.626Z,16.10
2019-04-03T16:17:33.500Z,16.40
2019-04-03T16:20:01.221Z,16.50
2019-04-03T16:22:30.172Z,16.70
2019-04-03T16:24:57.710Z,16.50
2019-04-03T16:27:27.684Z,16.50
2019-04-03T16:29:55.099Z,16.50
2019-04-03T16:32:25.875Z,16.30
2019-04-03T16:34:51.882Z,15.90
2019-04-03T16:37:21.493Z,15.60
2019-04-03T16:39:48.608Z,15.20
2019-04-03T16:42:17.042Z,15.10
2019-04-03T16:44:45.750Z,14.90
2019-04-03T16:47:14.438Z,14.80
2019-04-03T16:49:41.684Z,14.80
2019-04-03T16:52:09.314Z,14.70
2019-04-03T16:54:36.479Z,14.70
2019-04-03T16:57:03.797Z,14.60
2019-04-03T16:59:31.728Z,14.40
2019-04-03T17:01:59.008Z,14.30
2019-04-03T17:04:28.252Z,14.30
2019-04-03T17:06:55.658Z,14.30
2019-04-03T17:09:22.977Z,14.10
2019-04-03T17:11:50.192Z,14.00
2019-04-03T17:14:17.254Z,13.90
2019-04-03T17:16:46.040Z,13.80
2019-04-03T17:19:13.181Z,13.80
2019-04-03T17:21:40.282Z,13.70
2019-04-03T17:24:07.298Z,13.60
2019-04-03T17:26:42.508Z,13.60
2019-04-03T17:29:05.425Z,13.50
2019-04-03T17:31:33.103Z,13.50
2019-04-03T17:34:00.146Z,13.40
2019-04-03T17:36:27.200Z,13.30
2019-04-03T17:38:54.180Z,13.30
2019-04-03T17:41:21.362Z,13.20
2019-04-03T17:43:48.383Z,13.20
2019-04-03T17:46:15.871Z,13.10
2019-04-03T17:48:45.348Z,13.00
2019-04-03T17:51:12.505Z,13.00
2019-04-03T17:53:39.860Z,13.00
2019-04-03T17:56:07.879Z,13.00
2019-04-03T17:58:35.306Z,13.00
2019-04-03T18:01:03.073Z,12.90
2019-04-03T18:03:35.426Z,12.90
2019-04-03T18:06:02.983Z,12.90
2019-04-03T18:08:32.444Z,12.90
2019-04-03T18:10:58.973Z,12.80
2019-04-03T18:13:25.952Z,12.80
2019-04-03T18:15:53.310Z,12.80
2019-04-03T18:18:20.783Z,12.80
2019-04-03T18:20:48.765Z,12.80
2019-04-03T18:23:16.229Z,12.70
2019-04-03T18:25:43.379Z,12.70
2019-04-03T18:28:10.708Z,12.70
2019-04-03T18:30:38.099Z,12.60
2019-04-03T18:33:05.943Z,12.60
2019-04-03T18:35:33.535Z,12.60
2019-04-03T18:38:00.669Z,12.50
2019-04-03T18:40:27.667Z,12.50
2019-04-03T18:42:54.749Z,12.40
2019-04-03T18:45:25.537Z,12.40
2019-04-03T18:47:51.124Z,12.40
2019-04-03T18:50:18.733Z,12.30
2019-04-03T18:52:45.954Z,12.20
2019-04-03T18:55:14.618Z,12.20
2019-04-03T18:57:41.954Z,12.20
2019-04-03T19:00:09.677Z,12.30
2019-04-03T19:02:37.125Z,12.30
2019-04-03T19:05:04.994Z,12.30
2019-04-03T19:07:31.972Z,12.30
2019-04-03T19:10:06.988Z,12.20
2019-04-03T19:12:35.370Z,12.30
2019-04-03T19:14:57.119Z,12.20
2019-04-03T19:17:24.802Z,12.20
2019-04-03T19:19:54.442Z,12.20
2019-04-03T19:22:21.890Z,12.20
2019-04-03T19:24:49.351Z,12.20
2019-04-03T19:27:16.315Z,12.20
2019-04-03T19:29:43.582Z,12.20
2019-04-03T19:32:12.220Z,12.10
2019-04-03T19:34:47.745Z,12.10
2019-04-03T19:37:15.002Z,12.00
2019-04-03T19:39:41.968Z,11.90
2019-04-03T19:42:09.159Z,11.80
2019-04-03T19:44:37.303Z,11.70
2019-04-03T19:47:04.852Z,11.60
2019-04-03T19:49:31.935Z,11.60
2019-04-03T19:51:58.929Z,11.60
2019-04-03T19:54:25.954Z,11.50
2019-04-03T19:56:56.488Z,11.50
2019-04-03T19:59:24.531Z,11.50
2019-04-03T20:01:51.850Z,11.40
2019-04-03T20:04:19.503Z,11.40
2019-04-03T20:06:46.726Z,11.30
2019-04-03T20:09:13.794Z,11.30
2019-04-03T20:11:41.279Z,11.20
2019-04-03T20:14:11.294Z,11.20
2019-04-03T20:16:37.676Z,11.20
2019-04-03T20:19:06.706Z,11.10
2019-04-03T20:21:35.935Z,11.10
2019-04-03T20:24:05.519Z,11.00
2019-04-03T20:26:36.367Z,11.10
2019-04-03T20:29:08.722Z,11.10
2019-04-03T20:31:40.856Z,11.00
2019-04-03T20:34:19.005Z,11.00
2019-04-03T20:36:46.272Z,11.00
2019-04-03T20:39:14.318Z,11.00
2019-04-03T20:41:41.454Z,10.90
2019-04-03T20:44:08.481Z,10.90
2019-04-03T20:46:35.681Z,10.80
2019-04-03T20:49:03.235Z,10.80
2019-04-03T20:51:30.597Z,10.80
2019-04-03T20:53:57.745Z,10.80
2019-04-03T20:56:24.850Z,10.80
2019-04-03T20:58:56.234Z,10.70
2019-04-03T21:01:20.846Z,10.70
2019-04-03T21:03:47.929Z,10.60
2019-04-03T21:06:15.101Z,10.60
2019-04-03T21:08:42.434Z,10.60
2019-04-03T21:11:09.536Z,10.50
2019-04-03T21:13:39.533Z,10.50
2019-04-03T21:16:05.724Z,10.50
2019-04-03T21:18:32.951Z,10.50
2019-04-03T21:21:01.539Z,10.50
2019-04-03T21:23:28.918Z,10.50
2019-04-03T21:25:56.219Z,10.50
2019-04-03T21:28:23.351Z,10.50
2019-04-03T21:30:50.765Z,10.60
2019-04-03T21:33:17.956Z,10.60
2019-04-03T21:35:45.043Z,10.60
2019-04-03T21:38:12.405Z,10.60
2019-04-03T21:40:39.770Z,10.60
2019-04-03T21:43:07.603Z,10.50
2019-04-03T21:45:35.077Z,10.50
2019-04-03T21:48:02.016Z,10.50
2019-04-03T21:50:29.018Z,10.50
2019-04-03T21:52:56.158Z,10.50
2019-04-03T21:55:23.345Z,10.50
2019-04-03T21:57:50.626Z,10.50
2019-04-03T22:00:44.373Z,10.40
2019-04-03T22:03:14.127Z,10.40
2019-04-03T22:05:41.292Z,10.40
2019-04-03T22:08:08.331Z,10.50
2019-04-03T22:10:35.428Z,10.40
2019-04-03T22:13:02.716Z,10.50
2019-04-03T22:15:30.015Z,10.60
2019-04-03T22:17:57.159Z,10.50
2019-04-03T22:20:24.115Z,10.60
2019-04-03T22:22:51.158Z,10.70
2019-04-03T22:25:18.615Z,10.60
2019-04-03T22:27:45.568Z,10.70
2019-04-03T22:30:12.637Z,10.70
2019-04-03T22:32:39.861Z,10.70
2019-04-03T22:35:07.015Z,10.80
2019-04-03T22:37:35.195Z,10.90
2019-04-03T22:40:03.686Z,10.90
2019-04-03T22:42:30.858Z,11.00
2019-04-03T22:44:57.844Z,10.80
2019-04-03T22:47:25.067Z,10.80
2019-04-03T22:49:53.252Z,10.70
2019-04-03T22:52:21.032Z,10.60
2019-04-03T22:54:48.180Z,10.60
2019-04-03T22:57:15.325Z,10.50
2019-04-03T22:59:42.486Z,10.40
2019-04-03T23:02:09.745Z,10.40
2019-04-03T23:04:37.343Z,10.30
2019-04-03T23:07:04.647Z,10.30
2019-04-03T23:09:31.800Z,10.40
2019-04-03T23:11:58.923Z,10.50
2019-04-03T23:14:25.996Z,10.50
2019-04-03T23:16:53.493Z,10.60
2019-04-03T23:19:20.560Z,10.50
2019-04-03T23:21:47.553Z,10.50
2019-04-03T23:24:14.594Z,10.60
2019-04-03T23:26:41.619Z,10.60
2019-04-03T23:29:08.617Z,10.60
2019-04-03T23:31:35.933Z,10.50
2019-04-03T23:34:03.062Z,10.50
2019-04-03T23:36:30.546Z,10.50
2019-04-03T23:38:57.519Z,10.50
2019-04-03T23:41:24.526Z,10.40
2019-04-03T23:43:51.498Z,10.30
2019-04-03T23:46:18.871Z,10.10
2019-04-03T23:48:47.020Z,10.00
2019-04-03T23:51:23.071Z,9.70
2019-04-03T23:53:44.098Z,9.60
2019-04-03T23:56:11.421Z,9.50
2019-04-03T23:58:39.946Z,9.40
